Time;durP1;ratioP1;P1;durP2;ratioP2;P2;SDS_P1;SDS_P2;PMS_P1;PMS_P2;Temp;Humidity;BMP_temperature;BMP_pressure;BME280_temperature;BME280_humidity;BME280_pressure;Samples;Min_cycle;Max_cycle;Signal;HPM_P1;HPM_P2
2022/05/13 00:02:08;;;;;;;2.75;2.38;;;12.70;99.90;;;;;;4988286;28;20515;-86
2022/05/13 00:04:34;;;;;;;7.50;3.30;;;12.70;99.90;;;;;;4988170;28;20046;-86
2022/05/13 00:07:00;;;;;;;7.00;2.72;;;12.70;99.90;;;;;;5020030;28;20060;-86
2022/05/13 00:09:56;;;;;;;20.48;3.17;;;12.70;99.90;;;;;;4997086;28;20452;-87
2022/05/13 00:12:11;;;;;;;5.68;1.95;;;12.70;99.90;;;;;;5008753;28;20053;-87
2022/05/13 00:14:37;;;;;;;3.97;2.38;;;12.70;99.90;;;;;;5027297;28;20046;-87
2022/05/13 00:17:03;;;;;;;4.95;1.77;;;12.70;99.90;;;;;;5025798;28;20535;-86
2022/05/13 00:19:28;;;;;;;7.30;2.30;;;12.70;99.90;;;;;;5027585;28;20050;-87
2022/05/13 00:21:54;;;;;;;5.85;2.13;;;12.60;99.90;;;;;;5027121;28;20480;-87
2022/05/13 00:24:19;;;;;;;5.57;1.83;;;12.70;99.90;;;;;;5027060;28;20049;-86
2022/05/13 00:26:45;;;;;;;10.35;3.55;;;12.70;99.90;;;;;;5009067;28;20041;-86
2022/05/13 00:29:10;;;;;;;11.90;2.40;;;12.70;99.90;;;;;;5026064;28;20698;-87
2022/05/13 00:31:36;;;;;;;10.40;2.33;;;12.70;99.90;;;;;;5009371;28;20041;-87
2022/05/13 00:34:02;;;;;;;5.65;2.15;;;12.70;99.90;;;;;;5026587;28;20050;-86
2022/05/13 00:36:28;;;;;;;10.88;2.75;;;12.70;99.90;;;;;;5042565;28;20060;-87
2022/05/13 00:38:53;;;;;;;7.47;2.03;;;12.70;99.90;;;;;;5027067;28;20492;-87
2022/05/13 00:41:19;;;;;;;9.52;2.30;;;12.70;99.90;;;;;;5008825;28;20046;-87
2022/05/13 00:43:52;;;;;;;5.18;2.92;;;12.70;99.90;;;;;;5026054;28;20091;-87
2022/05/13 00:46:19;;;;;;;7.28;2.15;;;12.70;99.90;;;;;;5019799;28;20060;-87
2022/05/13 00:48:46;;;;;;;6.85;3.42;;;12.60;99.90;;;;;;5022234;28;20116;-87
2022/05/13 00:51:16;;;;;;;2.90;2.08;;;12.70;99.90;;;;;;4988968;28;20120;-87
2022/05/13 00:53:44;;;;;;;8.40;2.85;;;12.60;99.90;;;;;;4989381;28;20064;-87
2022/05/13 00:56:10;;;;;;;6.82;2.70;;;12.60;99.90;;;;;;4996166;28;20050;-87
2022/05/13 00:58:38;;;;;;;6.13;2.88;;;12.60;99.90;;;;;;5025538;28;20223;-87
2022/05/13 01:01:04;;;;;;;7.97;3.33;;;12.60;99.90;;;;;;5041879;28;20045;-86
2022/05/13 01:03:30;;;;;;;5.50;2.90;;;12.60;99.90;;;;;;5026825;28;20051;-87
2022/05/13 01:05:59;;;;;;;12.52;3.60;;;12.60;99.90;;;;;;5026996;28;20045;-86
2022/05/13 01:08:26;;;;;;;10.25;3.38;;;12.60;99.90;;;;;;5026016;28;20570;-86
2022/05/13 01:10:54;;;;;;;14.10;3.53;;;12.60;99.90;;;;;;5025928;28;20060;-87
2022/05/13 01:13:28;;;;;;;7.32;3.38;;;12.60;99.90;;;;;;5023964;28;20470;-86
2022/05/13 01:15:53;;;;;;;7.13;3.55;;;12.60;99.90;;;;;;5026452;28;20073;-88
2022/05/13 01:18:34;;;;;;;7.88;3.75;;;12.70;99.90;;;;;;5025978;28;20134;-86
2022/05/13 01:21:00;;;;;;;5.97;2.78;;;12.60;99.90;;;;;;5026089;28;20053;-86
2022/05/13 01:23:35;;;;;;;9.25;2.50;;;12.60;99.90;;;;;;5025110;28;20045;-86
2022/05/13 01:26:05;;;;;;;7.43;2.95;;;12.60;99.90;;;;;;5041183;28;20077;-86
2022/05/13 01:28:34;;;;;;;5.18;2.03;;;12.60;99.90;;;;;;5006896;28;20064;-80
2022/05/13 01:31:03;;;;;;;9.27;2.80;;;12.60;99.90;;;;;;5008940;28;20060;-86
2022/05/13 01:33:29;;;;;;;15.43;2.05;;;12.60;99.90;;;;;;5041793;28;20034;-86
2022/05/13 01:35:57;;;;;;;11.98;3.45;;;12.60;99.90;;;;;;5025592;28;20522;-84
2022/05/13 01:38:26;;;;;;;12.85;3.53;;;12.60;99.90;;;;;;5025498;28;20049;-86
2022/05/13 01:40:52;;;;;;;10.95;3.17;;;12.60;99.90;;;;;;5025687;28;20079;-86
2022/05/13 01:43:19;;;;;;;3.10;2.40;;;12.60;99.90;;;;;;5024394;28;20069;-86
2022/05/13 01:45:45;;;;;;;6.15;3.22;;;12.60;99.90;;;;;;5023581;28;20059;-87
2022/05/13 01:48:11;;;;;;;6.15;2.20;;;12.60;99.90;;;;;;4991579;28;20062;-87
2022/05/13 01:50:38;;;;;;;5.35;2.83;;;12.60;99.90;;;;;;5025411;28;20503;-87
2022/05/13 01:53:04;;;;;;;16.98;3.65;;;12.60;99.90;;;;;;5025337;28;20496;-86
2022/05/13 01:55:30;;;;;;;6.53;3.00;;;12.60;99.90;;;;;;5025469;28;20575;-86
2022/05/13 01:57:55;;;;;;;8.48;3.72;;;12.60;99.90;;;;;;5024789;28;20045;-87
2022/05/13 02:00:22;;;;;;;11.82;3.53;;;12.60;99.90;;;;;;5025466;28;20377;-86
2022/05/13 02:05:32;;;;;;;5.97;2.53;;;12.60;99.90;;;;;;5007584;28;20119;-83
2022/05/13 02:07:57;;;;;;;8.75;3.72;;;12.60;99.90;;;;;;5025504;28;20045;-86
2022/05/13 02:10:23;;;;;;;8.07;3.97;;;12.60;99.90;;;;;;5024842;28;20092;-86
2022/05/13 02:12:49;;;;;;;11.45;3.60;;;12.60;99.90;;;;;;5024375;28;20558;-87
2022/05/13 02:15:15;;;;;;;15.18;3.13;;;12.60;99.90;;;;;;5040260;28;20048;-86
2022/05/13 02:17:40;;;;;;;8.05;3.20;;;12.60;99.90;;;;;;5025201;28;20088;-86
2022/05/13 02:20:07;;;;;;;14.88;2.75;;;12.60;99.90;;;;;;5024361;28;20045;-86
2022/05/13 02:22:33;;;;;;;17.25;3.58;;;12.60;99.90;;;;;;5024942;28;20067;-85
2022/05/13 02:24:59;;;;;;;18.35;3.53;;;12.60;99.90;;;;;;5025262;28;20502;-87
2022/05/13 02:27:25;;;;;;;11.68;3.40;;;12.50;99.90;;;;;;5023573;28;20041;-86
2022/05/13 02:29:50;;;;;;;8.88;2.95;;;12.60;99.90;;;;;;5007356;28;20423;-86
2022/05/13 02:32:16;;;;;;;12.52;3.95;;;12.60;99.90;;;;;;5024644;28;20043;-86
2022/05/13 02:34:41;;;;;;;7.60;3.30;;;12.60;99.90;;;;;;5024893;28;20045;-86
2022/05/13 02:37:07;;;;;;;23.58;4.50;;;12.50;99.90;;;;;;5024367;28;20488;-87
2022/05/13 02:39:32;;;;;;;9.82;3.47;;;12.60;99.90;;;;;;5006095;28;20056;-86
2022/05/13 02:41:58;;;;;;;16.77;4.30;;;12.60;99.90;;;;;;5024384;28;20441;-85
2022/05/13 02:44:25;;;;;;;4.32;3.00;;;12.50;99.90;;;;;;5024422;28;20114;-86
2022/05/13 02:46:51;;;;;;;22.98;4.20;;;12.60;99.90;;;;;;5024393;28;20116;-86
2022/05/13 02:49:17;;;;;;;9.85;3.72;;;12.60;99.90;;;;;;5024127;28;20045;-86
2022/05/13 02:51:46;;;;;;;8.88;3.10;;;12.50;99.90;;;;;;5006650;28;20045;-86
2022/05/13 02:54:12;;;;;;;13.82;3.83;;;12.50;99.90;;;;;;5024437;28;20049;-86
2022/05/13 02:56:38;;;;;;;9.20;2.80;;;12.50;99.90;;;;;;5023667;28;20073;-89
2022/05/13 02:59:04;;;;;;;14.73;3.70;;;12.50;99.90;;;;;;5024015;28;20087;-88
2022/05/13 03:01:32;;;;;;;2.13;1.58;;;12.50;99.90;;;;;;5024943;28;20045;-88
2022/05/13 03:03:58;;;;;;;8.15;2.97;;;12.50;99.90;;;;;;5023991;28;20502;-88
2022/05/13 03:06:24;;;;;;;11.98;2.63;;;12.50;99.90;;;;;;5023840;28;20456;-88
2022/05/13 03:08:49;;;;;;;2.92;2.45;;;12.50;99.90;;;;;;5024263;28;20065;-89
2022/05/13 03:11:16;;;;;;;16.50;3.08;;;12.50;99.90;;;;;;5023584;28;20773;-89
2022/05/13 03:13:42;;;;;;;11.52;3.72;;;12.50;99.90;;;;;;5023160;28;20049;-88
2022/05/13 03:16:18;;;;;;;7.72;2.95;;;12.50;99.90;;;;;;5023691;28;20047;-88
2022/05/13 03:18:44;;;;;;;3.17;2.40;;;12.50;99.90;;;;;;5023901;28;20072;-88
2022/05/13 03:21:10;;;;;;;7.35;2.45;;;12.50;99.90;;;;;;5023723;28;20411;-88
2022/05/13 03:23:36;;;;;;;5.72;2.05;;;12.50;99.90;;;;;;5024199;28;20045;-88
2022/05/13 03:26:01;;;;;;;12.00;2.85;;;12.50;99.90;;;;;;5023768;28;20492;-88
2022/05/13 03:28:27;;;;;;;5.40;2.28;;;12.50;99.90;;;;;;5023278;28;20053;-88
2022/05/13 03:30:53;;;;;;;8.77;3.15;;;12.50;99.90;;;;;;5023915;28;20245;-88
2022/05/13 03:33:19;;;;;;;5.72;1.52;;;12.50;99.90;;;;;;5023478;28;20038;-89
2022/05/13 03:35:46;;;;;;;5.00;2.50;;;12.50;99.90;;;;;;5024183;28;20104;-89
2022/05/13 03:38:11;;;;;;;2.95;2.00;;;12.50;99.90;;;;;;5023743;28;20392;-88
2022/05/13 03:40:37;;;;;;;1.98;1.23;;;12.50;99.90;;;;;;5024027;28;20037;-89
2022/05/13 03:43:04;;;;;;;2.53;2.00;;;12.50;99.90;;;;;;5005049;28;20045;-85
2022/05/13 03:45:32;;;;;;;5.28;2.45;;;12.50;99.90;;;;;;5023487;28;20110;-85
2022/05/13 03:47:59;;;;;;;6.82;1.80;;;12.50;99.90;;;;;;5004453;28;20042;-85
2022/05/13 03:50:25;;;;;;;8.05;1.80;;;12.50;99.90;;;;;;5004098;28;20042;-86
2022/05/13 03:52:51;;;;;;;4.18;1.80;;;12.50;99.90;;;;;;4989975;28;20053;-86
2022/05/13 03:55:17;;;;;;;9.20;1.55;;;12.50;99.90;;;;;;5007568;28;20061;-86
2022/05/13 03:57:43;;;;;;;3.97;1.75;;;12.50;99.90;;;;;;5006453;28;20528;-86
2022/05/13 04:00:10;;;;;;;11.95;2.45;;;12.50;99.90;;;;;;5007193;28;20057;-86
2022/05/13 04:02:36;;;;;;;4.45;1.42;;;12.50;99.90;;;;;;5007456;28;20038;-86
2022/05/13 04:10:31;;;;;;;1.88;1.42;;;12.50;99.90;;;;;;5007267;28;20064;-86
2022/05/13 04:18:26;;;;;;;4.10;1.33;;;12.50;99.90;;;;;;5009780;28;20115;-85
2022/05/13 04:20:51;;;;;;;1.55;1.20;;;12.50;99.90;;;;;;5027170;28;20041;-86
2022/05/13 04:23:21;;;;;;;1.65;1.40;;;12.50;99.90;;;;;;5026666;28;20038;-85
2022/05/13 04:25:47;;;;;;;6.93;1.13;;;12.50;99.90;;;;;;5009568;28;20103;-86
2022/05/13 04:28:12;;;;;;;5.05;2.15;;;12.50;99.90;;;;;;5025744;28;20444;-87
2022/05/13 04:30:38;;;;;;;2.47;1.70;;;12.50;99.90;;;;;;5027146;28;20045;-85
2022/05/13 04:33:04;;;;;;;0.90;0.82;;;12.50;99.90;;;;;;5026878;28;20069;-85
2022/05/13 04:35:30;;;;;;;2.33;1.88;;;12.50;99.90;;;;;;5027488;28;20041;-86
2022/05/13 04:37:56;;;;;;;3.83;1.40;;;12.50;99.90;;;;;;5009512;28;20065;-85
2022/05/13 04:40:21;;;;;;;2.80;1.48;;;12.50;99.90;;;;;;5008829;28;20438;-85
2022/05/13 04:42:50;;;;;;;0.82;0.82;;;12.50;99.90;;;;;;5025588;28;20045;-86
2022/05/13 04:45:24;;;;;;;1.25;1.15;;;12.50;99.90;;;;;;5026573;28;20092;-87
2022/05/13 04:50:40;;;;;;;1.80;1.52;;;12.50;99.90;;;;;;5006157;28;20077;-89
2022/05/13 04:53:07;;;;;;;6.45;1.42;;;12.50;99.90;;;;;;5021547;28;20083;-89
2022/05/13 04:55:33;;;;;;;11.13;2.20;;;12.50;99.90;;;;;;5014418;28;20052;-87
2022/05/13 04:57:59;;;;;;;5.20;1.50;;;12.50;99.90;;;;;;5026048;28;20045;-87
2022/05/13 05:00:25;;;;;;;6.80;1.25;;;12.50;99.90;;;;;;5026351;28;20099;-88
2022/05/13 05:02:50;;;;;;;4.57;1.50;;;12.50;99.90;;;;;;5025719;28;20045;-88
2022/05/13 05:05:16;;;;;;;1.63;1.38;;;12.50;99.90;;;;;;5026352;28;20041;-88
2022/05/13 05:07:42;;;;;;;3.00;1.65;;;12.50;99.90;;;;;;5026495;28;20033;-87
2022/05/13 05:10:08;;;;;;;1.15;1.05;;;12.60;99.90;;;;;;5025781;28;20538;-88
2022/05/13 05:12:34;;;;;;;6.40;1.30;;;12.60;99.90;;;;;;5025229;28;20077;-89
2022/05/13 05:14:59;;;;;;;2.78;1.20;;;12.60;99.90;;;;;;5026634;28;20539;-88
2022/05/13 05:17:26;;;;;;;1.80;1.08;;;12.60;99.90;;;;;;5041085;28;20618;-81
2022/05/13 05:19:51;;;;;;;8.70;2.10;;;12.60;99.90;;;;;;5026286;28;20064;-86
2022/05/13 05:22:17;;;;;;;6.75;2.22;;;12.60;99.90;;;;;;5024770;28;20524;-86
2022/05/13 05:24:42;;;;;;;1.38;1.02;;;12.60;99.90;;;;;;5026169;28;20045;-87
2022/05/13 05:27:10;;;;;;;2.60;2.00;;;12.50;99.90;;;;;;5024866;28;20049;-87
2022/05/13 05:29:36;;;;;;;1.85;1.08;;;12.60;99.90;;;;;;5008491;28;20265;-87
2022/05/13 05:32:02;;;;;;;13.02;1.60;;;12.60;99.90;;;;;;5025650;28;20049;-87
2022/05/13 05:34:28;;;;;;;1.52;1.42;;;12.60;99.90;;;;;;5023760;28;20095;-87
2022/05/13 05:36:54;;;;;;;5.00;1.52;;;12.60;99.90;;;;;;5024835;28;20068;-87
2022/05/13 05:39:20;;;;;;;1.48;1.23;;;12.60;99.90;;;;;;5024581;28;20064;-85
2022/05/13 05:41:46;;;;;;;1.75;1.52;;;12.60;99.90;;;;;;5014472;28;20618;-87
2022/05/13 05:44:11;;;;;;;3.60;1.25;;;12.60;99.90;;;;;;5023727;28;20519;-86
2022/05/13 05:46:37;;;;;;;1.58;1.48;;;12.70;99.90;;;;;;5017375;28;20175;-87
2022/05/13 05:49:03;;;;;;;1.60;1.48;;;12.70;99.90;;;;;;5023805;28;20080;-86
2022/05/13 05:51:29;;;;;;;3.85;1.38;;;12.70;99.90;;;;;;5007911;28;20164;-86
2022/05/13 05:59:24;;;;;;;1.05;1.05;;;12.70;99.90;;;;;;5024234;28;20099;-90
2022/05/13 06:01:50;;;;;;;3.15;1.23;;;12.70;99.90;;;;;;4989941;28;20072;-88
2022/05/13 06:04:15;;;;;;;1.00;1.00;;;12.80;99.90;;;;;;5017738;28;20488;-87
2022/05/13 06:06:41;;;;;;;2.67;0.95;;;12.70;99.90;;;;;;5020956;28;20040;-88
2022/05/13 06:09:08;;;;;;;0.60;0.60;;;12.80;99.90;;;;;;5006516;28;20128;-88
2022/05/13 06:11:33;;;;;;;2.70;1.55;;;12.80;99.90;;;;;;5021322;28;20051;-86
2022/05/13 06:14:00;;;;;;;2.63;1.13;;;12.80;99.90;;;;;;5024594;28;20038;-86
2022/05/13 06:16:28;;;;;;;1.38;1.05;;;12.80;99.90;;;;;;5024886;28;20441;-87
2022/05/13 06:18:54;;;;;;;4.63;1.30;;;12.80;99.90;;;;;;5006322;28;20045;-91
2022/05/13 06:21:20;;;;;;;2.15;0.90;;;12.80;99.90;;;;;;5019537;28;20072;-89
2022/05/13 06:23:46;;;;;;;2.78;1.48;;;12.80;99.90;;;;;;5005017;28;20460;-91
2022/05/13 06:26:12;;;;;;;10.93;1.58;;;12.90;99.90;;;;;;5023430;28;20040;-90
2022/05/13 06:28:37;;;;;;;1.23;0.85;;;12.90;99.90;;;;;;4989117;28;20047;-85
2022/05/13 06:31:03;;;;;;;1.23;0.70;;;12.90;99.90;;;;;;5022640;28;20041;-84
2022/05/13 06:33:29;;;;;;;1.25;1.15;;;12.90;99.90;;;;;;5023150;28;20041;-84
2022/05/13 06:35:55;;;;;;;4.03;1.27;;;12.90;99.90;;;;;;5023475;28;20488;-85
2022/05/13 06:38:22;;;;;;;3.30;0.90;;;12.90;99.90;;;;;;5024230;28;20404;-85
2022/05/13 06:40:53;;;;;;;5.82;0.93;;;12.90;99.90;;;;;;5024046;28;20041;-84
2022/05/13 06:43:20;;;;;;;1.40;1.00;;;13.00;99.90;;;;;;5022631;28;20535;-85
2022/05/13 06:45:46;;;;;;;1.65;1.05;;;13.00;99.90;;;;;;5024151;28;20076;-85
2022/05/13 06:48:12;;;;;;;1.85;1.13;;;13.00;99.90;;;;;;5023526;28;20068;-85
2022/05/13 06:50:39;;;;;;;2.38;1.00;;;13.10;99.90;;;;;;5024300;28;20042;-84
2022/05/13 06:53:05;;;;;;;1.85;1.40;;;13.10;99.90;;;;;;5005744;28;20492;-86
2022/05/13 06:55:31;;;;;;;4.30;1.10;;;13.10;99.90;;;;;;5023662;28;20030;-86
2022/05/13 06:57:58;;;;;;;4.22;1.05;;;13.20;99.90;;;;;;5005619;28;20051;-85
2022/05/13 07:00:23;;;;;;;7.72;1.20;;;13.20;99.90;;;;;;5022769;28;20372;-85
2022/05/13 07:02:49;;;;;;;2.17;0.90;;;13.20;99.90;;;;;;5023662;28;20048;-85
2022/05/13 07:05:16;;;;;;;0.90;0.90;;;13.20;99.90;;;;;;5023629;28;20402;-83
2022/05/13 07:07:42;;;;;;;3.50;1.58;;;13.30;99.90;;;;;;5023015;28;20033;-85
2022/05/13 07:10:08;;;;;;;2.67;1.25;;;13.30;99.90;;;;;;5028995;28;20111;-85
2022/05/13 07:12:36;;;;;;;3.47;1.60;;;13.30;99.90;;;;;;5023256;28;20045;-85
2022/05/13 07:15:03;;;;;;;0.90;0.90;;;13.40;99.90;;;;;;5006343;28;20045;-84
2022/05/13 07:17:30;;;;;;;1.70;0.82;;;13.40;99.90;;;;;;5007112;28;20045;-84
2022/05/13 07:19:55;;;;;;;0.50;0.50;;;13.40;99.90;;;;;;5023866;28;20045;-85
2022/05/13 07:22:21;;;;;;;6.88;1.00;;;13.40;99.90;;;;;;5019441;28;20096;-83
2022/05/13 07:24:47;;;;;;;3.03;0.88;;;13.40;99.90;;;;;;5039228;28;20136;-85
2022/05/13 07:27:13;;;;;;;1.17;1.00;;;13.50;99.90;;;;;;5025076;28;20141;-85
2022/05/13 07:29:39;;;;;;;0.93;0.93;;;13.50;99.90;;;;;;5021719;28;20705;-86
2022/05/13 07:32:05;;;;;;;4.75;1.02;;;13.50;99.90;;;;;;5024270;28;20041;-85
2022/05/13 07:34:31;;;;;;;1.85;1.08;;;13.50;99.90;;;;;;5009400;28;20059;-84
2022/05/13 07:36:56;;;;;;;8.02;2.30;;;13.60;99.90;;;;;;5029203;28;20068;-94
2022/05/13 07:42:08;;;;;;;1.20;0.70;;;13.60;99.90;;;;;;5010619;28;20233;-95
2022/05/13 07:44:35;;;;;;;5.43;1.00;;;13.60;99.90;;;;;;5029079;28;20084;-93
2022/05/13 07:47:02;;;;;;;1.15;0.98;;;13.70;99.90;;;;;;5020221;28;20041;-81
2022/05/13 07:49:28;;;;;;;2.95;1.27;;;13.70;99.90;;;;;;5025528;28;20083;-87
2022/05/13 07:51:53;;;;;;;6.75;1.27;;;13.70;99.90;;;;;;5026817;28;20049;-87
2022/05/13 07:54:19;;;;;;;1.00;0.52;;;13.80;99.90;;;;;;5022933;28;20046;-87
2022/05/13 07:56:45;;;;;;;0.90;0.77;;;13.70;99.90;;;;;;5022199;28;20511;-88
2022/05/13 07:59:10;;;;;;;6.75;1.10;;;13.80;99.90;;;;;;5020060;28;20037;-85
2022/05/13 08:01:36;;;;;;;0.88;0.80;;;13.80;99.90;;;;;;5023550;28;20087;-83
2022/05/13 08:04:02;;;;;;;1.20;0.93;;;13.80;99.90;;;;;;5023413;28;20111;-83
2022/05/13 08:06:27;;;;;;;2.58;1.38;;;13.80;99.90;;;;;;5027001;28;20120;-83
2022/05/13 08:08:56;;;;;;;0.45;0.40;;;13.90;99.90;;;;;;5008978;28;20125;-85
2022/05/13 08:11:23;;;;;;;1.83;1.20;;;13.90;99.90;;;;;;5025263;28;20045;-85
2022/05/13 08:13:49;;;;;;;2.88;1.25;;;13.90;99.90;;;;;;5008515;28;20033;-86
2022/05/13 08:16:25;;;;;;;0.90;0.88;;;13.90;99.90;;;;;;5025993;28;20091;-84
2022/05/13 08:18:50;;;;;;;2.58;0.88;;;14.00;99.90;;;;;;5024844;28;20041;-82
2022/05/13 08:21:16;;;;;;;1.23;1.13;;;14.00;99.90;;;;;;5027077;28;20095;-84
2022/05/13 08:23:42;;;;;;;1.35;0.90;;;14.00;99.90;;;;;;5026577;28;20037;-83
2022/05/13 08:26:08;;;;;;;4.13;1.50;;;14.10;99.90;;;;;;5025202;28;20045;-83
2022/05/13 08:28:34;;;;;;;4.63;0.98;;;14.10;99.90;;;;;;5026639;28;20041;-85
2022/05/13 08:31:00;;;;;;;3.65;1.45;;;14.10;99.90;;;;;;5023346;28;20436;-84
2022/05/13 08:33:26;;;;;;;1.40;0.68;;;14.10;99.90;;;;;;5009392;28;20048;-84
2022/05/13 08:35:55;;;;;;;1.88;1.20;;;14.20;99.90;;;;;;5026966;28;20041;-83
2022/05/13 08:38:23;;;;;;;10.15;1.40;;;14.20;99.90;;;;;;5025614;28;20507;-83
2022/05/13 08:40:49;;;;;;;0.80;0.80;;;14.20;99.90;;;;;;5025189;28;20419;-83
2022/05/13 08:43:18;;;;;;;1.88;1.17;;;14.20;99.90;;;;;;5006678;28;20045;-83
2022/05/13 08:45:56;;;;;;;1.75;0.95;;;14.30;99.90;;;;;;5022702;28;20037;-84
2022/05/13 08:48:47;;;;;;;9.85;0.93;;;14.30;99.90;;;;;;5025776;28;20041;-82
2022/05/13 08:51:21;;;;;;;2.28;0.82;;;14.40;99.90;;;;;;5017013;28;20407;-83
2022/05/13 08:54:10;;;;;;;0.98;0.98;;;14.40;99.90;;;;;;5005226;28;20086;-84
2022/05/13 08:56:36;;;;;;;1.10;1.00;;;14.50;99.90;;;;;;5015095;28;20042;-82
2022/05/13 08:59:10;;;;;;;3.33;1.00;;;14.60;99.90;;;;;;5022673;28;20045;-83
2022/05/13 09:01:41;;;;;;;1.17;0.75;;;14.60;99.90;;;;;;5025172;28;20038;-82
2022/05/13 09:04:18;;;;;;;3.47;2.17;;;14.70;99.90;;;;;;5023153;28;20040;-82
2022/05/13 09:06:59;;;;;;;5.72;1.50;;;14.70;99.90;;;;;;5016927;28;20041;-82
2022/05/13 09:09:25;;;;;;;1.95;0.98;;;14.70;99.90;;;;;;5022693;28;20069;-84
2022/05/13 09:12:09;;;;;;;4.80;1.27;;;14.70;99.90;;;;;;5003887;28;20211;-83
2022/05/13 09:14:59;;;;;;;3.55;1.30;;;14.80;99.90;;;;;;5016452;28;20112;-83
2022/05/13 09:17:44;;;;;;;3.95;1.20;;;14.70;99.90;;;;;;5031316;28;20100;-84
2022/05/13 09:20:14;;;;;;;2.92;1.20;;;14.60;99.90;;;;;;5005247;28;21825;-82
2022/05/13 09:22:46;;;;;;;3.67;1.60;;;14.60;99.90;;;;;;5024897;28;20492;-82
2022/05/13 09:25:36;;;;;;;0.65;0.65;;;14.60;99.90;;;;;;5021296;28;20053;-83
2022/05/13 09:28:11;;;;;;;1.45;1.35;;;14.60;99.90;;;;;;5033959;28;20119;-80
2022/05/13 09:30:40;;;;;;;2.08;1.15;;;14.70;99.90;;;;;;5000053;28;20045;-83
2022/05/13 09:33:30;;;;;;;1.10;1.00;;;14.70;99.90;;;;;;5019798;28;20673;-83
2022/05/13 09:36:02;;;;;;;0.55;0.50;;;14.70;99.90;;;;;;5021740;28;20388;-84
2022/05/13 09:38:43;;;;;;;1.67;0.93;;;14.70;99.90;;;;;;5002505;28;20034;-84
2022/05/13 09:41:13;;;;;;;7.32;1.38;;;14.70;99.90;;;;;;5028343;28;20680;-82
2022/05/13 09:43:51;;;;;;;1.45;0.70;;;14.70;99.90;;;;;;5024521;28;20046;-82
2022/05/13 09:46:32;;;;;;;1.08;0.98;;;14.80;99.90;;;;;;5019190;28;20957;-82
2022/05/13 09:49:04;;;;;;;3.08;1.35;;;14.80;99.90;;;;;;5030186;28;20085;-83
2022/05/13 09:51:35;;;;;;;2.60;0.90;;;14.80;99.90;;;;;;5022742;28;20038;-85
2022/05/13 09:54:25;;;;;;;1.42;1.25;;;14.80;99.90;;;;;;5006603;28;20042;-82
2022/05/13 09:57:02;;;;;;;2.92;1.30;;;14.80;99.90;;;;;;5023391;28;20045;-83
2022/05/13 09:59:28;;;;;;;8.40;1.50;;;14.80;99.90;;;;;;5008064;28;20104;-83
2022/05/13 10:01:53;;;;;;;1.38;1.27;;;14.80;99.90;;;;;;5022887;28;20053;-83
2022/05/13 10:04:22;;;;;;;3.10;1.23;;;14.80;99.90;;;;;;5002912;28;20045;-81
2022/05/13 10:06:48;;;;;;;3.80;0.90;;;14.90;99.90;;;;;;5020915;28;20048;-83
2022/05/13 10:15:14;;;;;;;4.22;1.48;;;14.90;99.90;;;;;;5003381;28;20155;-82
2022/05/13 10:17:49;;;;;;;1.42;1.02;;;14.90;99.90;;;;;;4995919;28;20046;-82
2022/05/13 10:20:33;;;;;;;2.85;0.68;;;15.00;99.90;;;;;;4986188;28;20490;-84
2022/05/13 10:23:10;;;;;;;2.00;1.80;;;15.00;99.90;;;;;;5006160;28;20052;-82
2022/05/13 10:25:53;;;;;;;9.45;0.98;;;15.00;99.90;;;;;;5012152;28;20042;-82
2022/05/13 10:28:21;;;;;;;2.80;1.40;;;15.00;99.90;;;;;;5024539;28;20041;-80
2022/05/13 10:31:13;;;;;;;6.88;1.20;;;15.10;99.90;;;;;;5023145;28;20038;-81
2022/05/13 10:34:05;;;;;;;1.83;1.38;;;15.10;99.90;;;;;;5005828;28;20083;-81
2022/05/13 10:36:54;;;;;;;3.78;1.35;;;15.10;99.90;;;;;;5019983;28;20045;-76
2022/05/13 10:39:24;;;;;;;2.85;0.80;;;15.20;99.90;;;;;;5018726;28;20053;-80
2022/05/13 10:41:58;;;;;;;1.17;1.05;;;15.20;99.90;;;;;;5002734;28;20246;-80
2022/05/13 10:45:01;;;;;;;7.03;1.00;;;15.20;99.90;;;;;;5016217;28;20128;-80
2022/05/13 10:47:42;;;;;;;2.92;1.65;;;15.20;99.90;;;;;;5023772;28;20491;-80
2022/05/13 10:50:16;;;;;;;2.70;2.20;;;15.30;99.90;;;;;;4989973;28;20045;-80
2022/05/13 10:53:00;;;;;;;3.40;1.65;;;15.40;99.90;;;;;;5024438;28;20538;-80
2022/05/13 10:55:47;;;;;;;13.20;1.25;;;15.40;99.90;;;;;;5006251;28;20175;-80
2022/05/13 10:58:21;;;;;;;1.90;1.00;;;15.40;99.90;;;;;;5006506;28;20048;-80
2022/05/13 11:01:13;;;;;;;4.32;1.25;;;15.40;99.90;;;;;;5023455;28;20041;-80
2022/05/13 11:04:04;;;;;;;5.57;0.98;;;15.50;99.90;;;;;;5022956;28;20163;-80
2022/05/13 11:06:56;;;;;;;4.80;1.92;;;15.50;99.90;;;;;;5007108;28;20103;-80
2022/05/13 11:09:45;;;;;;;5.22;0.85;;;15.50;99.90;;;;;;5023931;28;20053;-81
2022/05/13 11:12:35;;;;;;;3.35;0.90;;;15.60;99.90;;;;;;5015029;28;20088;-79
2022/05/13 11:15:15;;;;;;;16.83;2.20;;;15.50;99.90;;;;;;4982767;28;20120;-80
2022/05/13 11:18:13;;;;;;;3.67;1.40;;;15.50;99.90;;;;;;5013739;28;20056;-81
2022/05/13 11:20:51;;;;;;;1.95;1.83;;;15.50;99.90;;;;;;5015478;28;20519;-80
2022/05/13 11:25:54;;;;;;;1.83;1.42;;;15.50;99.90;;;;;;5018198;28;20037;-81
2022/05/13 11:26:40;;;;;;;2.35;1.02;;;15.50;99.90;;;;;;5002060;28;20054;-80
2022/05/13 11:29:51;;;;;;;5.15;2.03;;;15.50;99.90;;;;;;5012952;28;21352;-83
2022/05/13 11:32:34;;;;;;;2.42;1.45;;;15.60;99.90;;;;;;4977370;28;20854;-83
2022/05/13 11:35:38;;;;;;;2.15;1.35;;;15.60;99.90;;;;;;5021977;28;20050;-83
2022/05/13 11:38:34;;;;;;;1.70;1.13;;;15.60;99.90;;;;;;5020676;28;20081;-86
2022/05/13 11:41:08;;;;;;;3.63;1.90;;;15.70;99.90;;;;;;5021880;28;20053;-84
2022/05/13 11:43:49;;;;;;;0.90;0.90;;;15.70;99.90;;;;;;5017512;28;20128;-86
2022/05/13 11:46:44;;;;;;;2.67;1.23;;;15.80;99.90;;;;;;5021281;28;20072;-89
2022/05/13 11:49:40;;;;;;;1.58;0.98;;;15.80;99.90;;;;;;4999046;28;20539;-87
2022/05/13 11:52:11;;;;;;;5.35;1.20;;;15.70;99.90;;;;;;5013939;28;20133;-89
2022/05/13 11:54:42;;;;;;;4.35;1.58;;;15.70;99.90;;;;;;5024116;28;20072;-84
2022/05/13 11:57:16;;;;;;;3.67;1.33;;;15.70;99.90;;;;;;5021863;28;20412;-82
2022/05/13 11:59:45;;;;;;;2.67;0.90;;;15.70;99.90;;;;;;5023542;28;20116;-83
2022/05/13 12:02:16;;;;;;;5.22;1.40;;;15.70;99.90;;;;;;5022967;28;20042;-85
2022/05/13 12:05:06;;;;;;;2.00;1.45;;;15.60;99.90;;;;;;5002003;28;20463;-82
2022/05/13 12:07:50;;;;;;;14.10;1.33;;;15.70;99.90;;;;;;5023099;28;20412;-85
2022/05/13 12:10:17;;;;;;;1.27;1.02;;;15.80;99.90;;;;;;5019759;28;20107;-86
2022/05/13 12:13:22;;;;;;;3.78;1.60;;;15.80;99.90;;;;;;5007036;28;20088;-87
2022/05/13 12:16:12;;;;;;;3.13;1.10;;;15.80;99.90;;;;;;5026779;28;20124;-85
2022/05/13 12:18:58;;;;;;;0.85;0.85;;;15.80;99.90;;;;;;5026816;28;20076;-82
2022/05/13 12:21:47;;;;;;;7.75;1.55;;;15.90;99.90;;;;;;5026601;28;20046;-82
2022/05/13 12:24:13;;;;;;;5.07;1.15;;;15.90;99.90;;;;;;4994387;28;20537;-82
2022/05/13 12:27:12;;;;;;;2.15;1.10;;;15.90;99.90;;;;;;5005790;28;20052;-89
2022/05/13 12:30:02;;;;;;;4.28;1.38;;;15.90;99.90;;;;;;4982080;28;20069;-88
2022/05/13 12:32:41;;;;;;;3.97;1.48;;;15.90;99.90;;;;;;5026061;28;20041;-86
2022/05/13 12:38:18;;;;;;;1.60;0.95;;;16.00;99.90;;;;;;5017802;28;20055;-86
2022/05/13 12:44:01;;;;;;;7.85;1.80;;;16.00;99.90;;;;;;5002748;28;20254;-85
2022/05/13 12:47:12;;;;;;;1.35;1.20;;;16.00;99.90;;;;;;4991081;28;20058;-86
2022/05/13 12:50:00;;;;;;;2.75;1.30;;;16.10;99.90;;;;;;4966574;28;20057;-86
2022/05/13 12:56:38;;;;;;;5.40;1.15;;;16.10;99.90;;;;;;4897179;29;20072;-82
2022/05/13 12:59:52;;;;;;;6.50;1.45;;;16.20;99.90;;;;;;4934619;28;20136;-85
2022/05/13 13:06:03;;;;;;;8.68;1.20;;;16.30;99.90;;;;;;4983857;28;20575;-81
2022/05/13 13:08:38;;;;;;;2.03;0.95;;;16.30;99.90;;;;;;5001505;28;20026;-82
2022/05/13 13:11:31;;;;;;;5.90;1.30;;;16.30;99.90;;;;;;4981771;28;20046;-82
2022/05/13 13:14:01;;;;;;;3.25;1.58;;;16.30;99.90;;;;;;4990835;28;20061;-84
2022/05/13 13:16:58;;;;;;;2.88;1.15;;;16.30;99.90;;;;;;5004874;28;20432;-90
2022/05/13 13:19:29;;;;;;;3.67;1.02;;;16.40;99.90;;;;;;4963745;28;20046;-84
2022/05/13 13:22:20;;;;;;;1.05;0.80;;;16.40;99.90;;;;;;4997257;23;20647;-88
2022/05/13 13:24:50;;;;;;;6.65;1.48;;;16.40;99.90;;;;;;4979041;28;20050;-85
2022/05/13 13:27:24;;;;;;;3.42;1.48;;;16.40;99.90;;;;;;4982460;28;20046;-86
2022/05/13 13:29:49;;;;;;;2.72;1.48;;;16.40;99.90;;;;;;4982875;28;20057;-87
2022/05/13 13:32:18;;;;;;;2.40;1.17;;;16.50;99.90;;;;;;4983780;28;20485;-87
2022/05/13 13:35:02;;;;;;;1.65;0.68;;;16.40;99.90;;;;;;4984974;28;20128;-84
2022/05/13 13:37:38;;;;;;;8.38;1.98;;;16.40;99.90;;;;;;4981798;28;20065;-81
2022/05/13 13:40:21;;;;;;;3.15;1.83;;;16.50;99.90;;;;;;4981855;28;20493;-82
2022/05/13 13:42:47;;;;;;;6.40;1.67;;;16.50;99.90;;;;;;4984896;28;20123;-84
2022/05/13 13:45:20;;;;;;;1.10;0.90;;;16.50;99.90;;;;;;4984113;28;20048;-82
2022/05/13 13:47:53;;;;;;;2.00;0.80;;;16.60;99.90;;;;;;4982855;28;20042;-83
2022/05/13 13:50:22;;;;;;;6.85;1.35;;;16.50;99.90;;;;;;4984537;28;20505;-82
2022/05/13 13:52:50;;;;;;;3.90;1.17;;;16.50;99.90;;;;;;4983588;28;20485;-82